Time;durP1;ratioP1;P1;durP2;ratioP2;P2;SDS_P1;SDS_P2;PMS_P1;PMS_P2;Temp;Humidity;BMP_temperature;BMP_pressure;BME280_temperature;BME280_humidity;BME280_pressure;Samples;Min_cycle;Max_cycle;Signal;HPM_P1;HPM_P2
2023/09/26 00:03:28;;;;;;;14.93;11.20;;;;;;;-145.68;100.00;74823.22;10404889;28;20201;-73
2023/09/26 00:08:29;;;;;;;17.87;12.17;;;;;;;-145.68;100.00;74819.22;10424861;28;20201;-74
2023/09/26 00:13:29;;;;;;;17.60;12.43;;;;;;;-145.68;100.00;74799.22;10423857;28;20193;-73
2023/09/26 00:18:30;;;;;;;20.37;12.73;;;;;;;-145.68;100.00;74809.22;10405931;28;20230;-74
2023/09/26 00:23:30;;;;;;;19.67;12.60;;;;;;;-145.68;100.00;74809.22;10422978;28;20185;-74
2023/09/26 00:28:30;;;;;;;16.60;13.50;;;;;;;-145.68;100.00;74809.22;10424325;28;20236;-73
2023/09/26 00:33:32;;;;;;;21.47;13.37;;;;;;;-145.68;100.00;74809.22;10422834;28;20630;-74
2023/09/26 00:38:32;;;;;;;19.70;12.90;;;;;;;-145.68;100.00;74811.22;10422772;28;20307;-74
2023/09/26 00:43:35;;;;;;;17.23;13.13;;;;;;;-145.68;100.00;74813.22;10423203;28;20652;-73
2023/09/26 00:48:35;;;;;;;20.20;13.50;;;;;;;-145.68;100.00;74815.22;10422957;28;20290;-74
2023/09/26 00:53:40;;;;;;;16.30;12.43;;;;;;;-145.68;100.00;74827.22;10404665;28;20216;-74
2023/09/26 00:58:41;;;;;;;15.03;12.60;;;;;;;-145.68;100.00;74823.22;10404243;28;20217;-74
2023/09/26 01:03:44;;;;;;;19.40;12.90;;;;;;;-145.68;100.00;74811.22;10402903;28;20191;-73
2023/09/26 01:08:45;;;;;;;19.77;12.47;;;;;;;-145.68;100.00;74807.22;10404122;28;20283;-74
2023/09/26 01:13:45;;;;;;;16.53;13.23;;;;;;;-145.68;100.00;74793.22;10386993;28;20340;-73
2023/09/26 01:18:46;;;;;;;18.07;13.10;;;;;;;-145.68;100.00;74763.22;10421115;28;20227;-74
2023/09/26 01:23:53;;;;;;;17.20;13.03;;;;;;;-145.68;100.00;74757.22;10404352;28;20559;-74
2023/09/26 01:28:53;;;;;;;17.63;12.30;;;;;;;-145.68;100.00;74763.22;10386513;28;20191;-74
2023/09/26 01:33:54;;;;;;;19.27;13.23;;;;;;;-145.68;100.00;74751.22;10420306;28;20207;-73
2023/09/26 01:38:54;;;;;;;15.63;12.17;;;;;;;-145.68;100.00;74717.25;10420267;28;20231;-74
2023/09/26 01:43:55;;;;;;;17.30;12.10;;;;;;;-145.68;100.00;74725.25;10387094;28;20227;-74
2023/09/26 01:48:55;;;;;;;17.90;11.93;;;;;;;-145.68;100.00;74733.25;10401646;28;20242;-74
2023/09/26 01:53:55;;;;;;;14.10;11.50;;;;;;;-145.68;100.00;74739.25;10386110;28;20584;-74
2023/09/26 01:58:56;;;;;;;15.37;11.40;;;;;;;-145.68;100.00;74747.25;10385499;28;20219;-74
2023/09/26 02:03:56;;;;;;;13.80;12.30;;;;;;;-145.68;100.00;74739.25;10402361;28;20188;-74
2023/09/26 02:08:57;;;;;;;16.03;11.10;;;;;;;-145.68;100.00;74737.25;10419753;28;20195;-74
2023/09/26 02:13:57;;;;;;;16.17;11.30;;;;;;;-145.68;100.00;74751.22;10418970;28;20192;-74
2023/09/26 02:18:57;;;;;;;16.53;11.97;;;;;;;-145.68;100.00;74747.25;10397659;28;20227;-74
2023/09/26 02:23:59;;;;;;;15.37;10.47;;;;;;;-145.68;100.00;74755.22;10418899;28;20192;-74
2023/09/26 02:29:00;;;;;;;11.77;10.33;;;;;;;-145.68;100.00;74767.22;10401478;28;20200;-74
2023/09/26 02:34:00;;;;;;;14.03;11.23;;;;;;;-145.68;100.00;74795.22;10400205;28;20241;-74
2023/09/26 02:39:00;;;;;;;14.33;10.17;;;;;;;-145.68;100.00;74791.22;10419708;28;20224;-74
2023/09/26 02:44:03;;;;;;;12.97;11.07;;;;;;;-145.68;100.00;74811.22;10400605;28;20187;-74
2023/09/26 02:49:03;;;;;;;15.00;11.93;;;;;;;-145.68;100.00;74823.22;10400516;28;20235;-74
2023/09/26 02:54:06;;;;;;;16.00;11.33;;;;;;;-145.68;100.00;74831.22;10384656;28;20218;-74
2023/09/26 02:59:06;;;;;;;19.57;13.30;;;;;;;-145.68;100.00;74855.22;10418935;28;20220;-74
2023/09/26 03:04:07;;;;;;;17.70;13.30;;;;;;;-145.68;100.00;74855.22;10400320;28;20640;-74
2023/09/26 03:09:08;;;;;;;22.10;15.17;;;;;;;-145.68;100.00;74857.22;10400651;28;20207;-74
2023/09/26 03:14:08;;;;;;;23.87;14.30;;;;;;;-145.68;100.00;74861.22;10399691;28;20191;-74
2023/09/26 03:19:09;;;;;;;23.30;15.67;;;;;;;-145.68;100.00;74849.22;10419295;28;20413;-74
2023/09/26 03:24:10;;;;;;;21.93;14.57;;;;;;;-145.68;100.00;74823.22;10400870;28;20230;-74
2023/09/26 03:29:10;;;;;;;20.90;14.80;;;;;;;-145.68;100.00;74819.22;10407918;28;20645;-74
2023/09/26 03:34:10;;;;;;;23.30;15.27;;;;;;;-145.68;100.00;74851.22;10407644;28;20269;-74
2023/09/26 03:39:11;;;;;;;22.87;15.77;;;;;;;-145.68;100.00;74835.22;10408366;28;20216;-73
2023/09/26 03:44:11;;;;;;;21.17;16.07;;;;;;;-145.68;100.00;74813.22;10406673;28;20200;-74
2023/09/26 03:49:13;;;;;;;23.27;16.13;;;;;;;-145.68;100.00;74797.22;10423929;28;20654;-74
2023/09/26 03:54:13;;;;;;;19.93;14.70;;;;;;;-145.68;100.00;74797.22;10425357;28;20184;-73
2023/09/26 03:59:15;;;;;;;24.47;15.67;;;;;;;-145.68;100.00;74803.22;10405582;28;20212;-73
2023/09/26 04:04:16;;;;;;;20.20;14.90;;;;;;;-145.68;100.00;74807.22;10423822;28;20185;-74
2023/09/26 04:09:16;;;;;;;19.77;14.23;;;;;;;-145.68;100.00;74801.22;10423605;28;20257;-74
2023/09/26 04:14:16;;;;;;;19.57;15.13;;;;;;;-145.68;100.00;74803.22;10423730;28;20224;-73
2023/09/26 04:19:17;;;;;;;19.43;14.37;;;;;;;-145.68;100.00;74795.22;10411154;28;20577;-73
2023/09/26 04:24:19;;;;;;;27.17;17.43;;;;;;;-145.68;100.00;74767.22;10417081;28;20235;-74
2023/09/26 04:29:20;;;;;;;23.83;16.03;;;;;;;-145.68;100.00;74775.22;10395472;28;20276;-74
2023/09/26 04:34:21;;;;;;;23.83;15.57;;;;;;;-145.68;100.00;74797.22;10394006;28;20196;-74
2023/09/26 04:39:22;;;;;;;20.30;14.33;;;;;;;-145.68;100.00;74801.22;10411383;28;20291;-74
2023/09/26 04:44:22;;;;;;;21.90;14.23;;;;;;;-145.68;100.00;74795.22;10411949;28;20198;-74
2023/09/26 04:49:23;;;;;;;23.20;16.33;;;;;;;-145.68;100.00;74781.22;10392538;28;20226;-74
2023/09/26 04:54:23;;;;;;;24.93;17.07;;;;;;;-145.68;100.00;74741.25;10390025;28;20653;-74
2023/09/26 04:59:23;;;;;;;22.80;16.07;;;;;;;-145.68;100.00;74747.25;10389198;28;20231;-73
2023/09/26 05:04:25;;;;;;;21.30;14.60;;;;;;;-145.68;100.00;74743.25;10407580;28;20193;-74
2023/09/26 05:09:25;;;;;;;21.43;14.20;;;;;;;-145.68;100.00;74729.25;10389254;28;20198;-73
2023/09/26 05:14:26;;;;;;;19.07;14.83;;;;;;;-145.68;100.00;74737.25;10406859;28;20196;-74
2023/09/26 05:19:26;;;;;;;22.97;14.23;;;;;;;-145.68;100.00;74713.25;10389381;28;20679;-74
2023/09/26 05:24:26;;;;;;;27.73;13.93;;;;;;;-145.68;100.00;74703.25;10388296;28;20204;-74
2023/09/26 05:29:27;;;;;;;22.27;14.10;;;;;;;-145.68;100.00;74683.25;10406793;28;20250;-74
2023/09/26 05:34:28;;;;;;;19.70;14.43;;;;;;;-145.68;100.00;74695.25;10405922;28;20235;-74
2023/09/26 05:39:28;;;;;;;20.63;13.30;;;;;;;-145.68;100.00;74669.25;10405976;28;20988;-73
2023/09/26 05:44:28;;;;;;;16.73;11.80;;;;;;;-145.68;100.00;74651.25;10405637;28;20189;-74
2023/09/26 05:49:30;;;;;;;17.13;11.83;;;;;;;-145.68;100.00;74625.28;10404463;28;20236;-74
2023/09/26 05:54:33;;;;;;;18.27;12.03;;;;;;;-145.68;100.00;74623.28;10405034;28;20279;-74
2023/09/26 05:59:33;;;;;;;19.10;10.60;;;;;;;-145.68;100.00;74607.28;10405181;28;20298;-74
2023/09/26 06:04:34;;;;;;;15.03;11.43;;;;;;;-145.68;100.00;74591.28;10390999;28;20275;-73
2023/09/26 06:09:35;;;;;;;15.07;11.13;;;;;;;-145.68;100.00;74571.28;10386953;28;20187;-73
2023/09/26 06:14:36;;;;;;;14.63;11.00;;;;;;;-145.68;100.00;74533.31;10400942;28;20312;-74
2023/09/26 06:19:37;;;;;;;23.75;11.10;;;;;;;-145.68;100.00;74461.34;10404883;28;20723;-74
2023/09/26 06:24:37;;;;;;;11.70;9.88;;;;;;;-145.68;100.00;74425.34;10403769;28;20192;-73
2023/09/26 06:29:41;;;;;;;15.63;8.68;;;;;;;-145.68;100.00;74327.38;10404500;28;20196;-74
2023/09/26 06:34:44;;;;;;;13.70;7.85;;;;;;;-145.68;100.00;74233.41;10386208;28;20199;-74
2023/09/26 06:39:44;;;;;;;11.27;7.47;;;;;;;-145.68;100.00;74125.47;10401775;28;20618;-74
2023/09/26 06:44:44;;;;;;;11.82;6.70;;;;;;;-145.68;100.00;74043.50;10404134;28;20551;-74
2023/09/26 06:49:46;;;;;;;6.57;5.30;;;;;;;-145.68;100.00;73899.56;10385029;28;20238;-74
2023/09/26 06:54:47;;;;;;;8.77;5.70;;;;;;;-145.68;100.00;73807.63;10402845;28;20552;-74
2023/09/26 06:59:51;;;;;;;8.05;5.88;;;;;;;-145.68;100.00;73763.66;10405339;28;20593;-74
2023/09/26 07:04:54;;;;;;;8.82;5.20;;;;;;;-145.68;87.60;73617.72;10411701;28;20220;-74
2023/09/26 07:09:55;;;;;;;8.70;4.78;;;;;;;-145.68;85.22;73635.72;10410950;28;20192;-74
2023/09/26 07:14:56;;;;;;;8.23;5.20;;;;;;;-145.68;83.09;73501.78;10410931;28;20192;-74
2023/09/26 07:19:59;;;;;;;10.02;4.70;;;;;;;-145.68;75.23;73419.84;10410525;28;20274;-74
2023/09/26 07:25:00;;;;;;;7.47;4.65;;;;;;;-145.68;78.27;73393.84;10410606;28;20218;-74
2023/09/26 07:30:00;;;;;;;6.97;4.45;;;;;;;-145.68;69.34;73301.91;10410798;28;20645;-74
2023/09/26 07:35:02;;;;;;;12.52;5.28;;;;;;;-145.68;71.78;73397.84;10409680;28;20185;-74
2023/09/26 07:40:05;;;;;;;9.02;5.40;;;;;;;-145.68;76.31;73449.81;10410314;28;20228;-74
2023/09/26 07:45:06;;;;;;;9.85;5.40;;;;;;;-145.68;69.52;73281.94;10409656;28;20196;-74
2023/09/26 07:50:07;;;;;;;11.40;5.75;;;;;;;-145.68;65.86;73170.00;10409698;28;20228;-75
2023/09/26 07:55:09;;;;;;;10.30;4.93;;;;;;;-145.68;63.56;73104.06;10410087;28;20253;-74
2023/09/26 08:00:13;;;;;;;10.70;6.20;;;;;;;-145.68;60.96;73064.09;10392258;28;20474;-74
2023/09/26 08:05:13;;;;;;;9.23;6.47;;;;;;;-145.68;63.72;73245.97;10409491;28;20641;-74
2023/09/26 08:10:14;;;;;;;10.73;6.90;;;;;;;-145.68;67.92;73325.91;10409649;28;20193;-74
2023/09/26 08:15:14;;;;;;;8.20;6.35;;;;;;;-145.68;68.78;73323.91;10408970;28;20633;-73
2023/09/26 08:20:16;;;;;;;12.20;6.82;;;;;;;-145.68;69.52;73373.88;10403260;28;20192;-74
2023/09/26 08:25:16;;;;;;;13.18;6.28;;;;;;;-145.68;65.91;73223.97;10409172;28;20228;-74
2023/09/26 08:30:16;;;;;;;8.15;5.38;;;;;;;-145.68;60.71;73066.09;10391036;28;20184;-74
2023/09/26 08:35:17;;;;;;;8.63;6.13;;;;;;;-145.68;57.53;73008.13;10394674;28;20203;-74
2023/09/26 08:40:18;;;;;;;7.85;5.25;;;;;;;-145.68;62.01;73200.00;10391180;28;20656;-75
2023/09/26 08:45:19;;;;;;;8.45;5.60;;;;;;;-145.68;62.27;73168.00;10390601;28;20189;-74
2023/09/26 08:50:20;;;;;;;8.63;5.40;;;;;;;-145.68;59.11;73092.06;10407616;28;20272;-74
2023/09/26 08:55:21;;;;;;;11.73;5.07;;;;;;;-145.68;60.34;73084.06;10391548;28;20193;-74
2023/09/26 09:00:22;;;;;;;8.15;5.10;;;;;;;-145.68;57.54;73052.09;10408483;28;20188;-73
2023/09/26 09:05:23;;;;;;;8.70;4.85;;;;;;;-145.68;57.25;73050.09;10389448;28;20185;-74
2023/09/26 09:10:23;;;;;;;10.95;5.25;;;;;;;-145.68;58.26;73102.06;10390074;28;20204;-74
2023/09/26 09:15:24;;;;;;;8.38;5.20;;;;;;;-145.68;57.16;73046.09;10406882;28;20196;-74
2023/09/26 09:20:43;;;;;;;8.07;4.70;;;;;;;-145.68;56.17;72934.19;10406867;28;20208;-75
2023/09/26 09:25:43;;;;;;;5.72;4.60;;;;;;;-145.68;55.44;72958.16;10404251;28;20188;-74
2023/09/26 09:30:44;;;;;;;9.10;4.30;;;;;;;-145.68;54.09;72874.22;10388482;28;20196;-74
2023/09/26 09:35:45;;;;;;;7.72;5.28;;;;;;;-145.68;53.38;72852.25;10406096;28;20592;-74
2023/09/26 09:40:46;;;;;;;6.30;5.00;;;;;;;-145.68;53.06;72880.22;10406811;28;20189;-74
2023/09/26 09:45:47;;;;;;;7.60;5.22;;;;;;;-145.68;53.01;72864.22;10405060;28;20204;-75
2023/09/26 09:50:49;;;;;;;7.88;5.55;;;;;;;-145.68;53.10;72892.22;10405988;28;20424;-74
2023/09/26 09:55:52;;;;;;;10.35;5.97;;;;;;;-145.68;53.71;73010.13;10405036;28;20358;-75
2023/09/26 10:00:53;;;;;;;12.48;6.10;;;;;;;-145.68;52.14;72946.16;10387342;28;20205;-74
2023/09/26 10:05:53;;;;;;;12.77;6.50;;;;;;;-145.68;53.88;73088.06;10387397;28;20524;-74
2023/09/26 10:10:54;;;;;;;10.35;6.72;;;;;;;-145.68;53.75;73082.06;10387563;28;20198;-74
2023/09/26 10:16:07;;;;;;;9.93;6.30;;;;;;;-145.68;53.11;73052.09;10386931;28;20354;-74
2023/09/26 10:21:26;;;;;;;8.93;6.47;;;;;;;-145.68;52.23;72992.13;10401399;28;20247;-74
2023/09/26 10:26:26;;;;;;;10.13;6.43;;;;;;;-145.68;50.99;72934.19;10404782;28;20200;-74
2023/09/26 10:31:31;;;;;;;11.32;7.13;;;;;;;-145.68;50.88;72872.22;10385988;28;20610;-75
2023/09/26 10:36:31;;;;;;;14.20;8.32;;;;;;;-145.68;52.16;72934.19;10385650;28;20220;-74
2023/09/26 10:41:32;;;;;;;12.10;9.60;;;;;;;-145.68;53.26;73006.13;10386711;28;20569;-74
2023/09/26 10:46:33;;;;;;;11.15;8.88;;;;;;;-145.68;53.03;72916.19;10403468;28;20185;-74
2023/09/26 10:51:34;;;;;;;13.02;8.73;;;;;;;-145.68;51.47;72904.19;10404394;28;20228;-74
2023/09/26 10:56:35;;;;;;;13.05;8.80;;;;;;;-145.68;51.13;72882.22;10389454;28;20220;-74
2023/09/26 11:01:36;;;;;;;12.82;9.07;;;;;;;-145.68;51.07;72920.19;10382045;28;20637;-74
2023/09/26 11:06:37;;;;;;;12.13;8.13;;;;;;;-145.68;50.88;72922.19;10385898;28;20246;-74
2023/09/26 11:11:38;;;;;;;11.25;7.70;;;;;;;-145.68;48.84;72828.25;10403454;28;20200;-74
2023/09/26 11:16:41;;;;;;;15.30;7.70;;;;;;;-145.68;49.43;72914.19;10403539;28;20599;-74
2023/09/26 11:21:41;;;;;;;13.48;7.32;;;;;;;-145.68;50.22;72938.16;10402559;28;20660;-74
2023/09/26 11:26:43;;;;;;;10.70;7.72;;;;;;;-145.68;51.06;72966.16;10384683;28;20195;-74
2023/09/26 11:31:44;;;;;;;10.93;7.25;;;;;;;-145.68;49.55;72854.25;10385118;28;20189;-74
2023/09/26 11:36:47;;;;;;;10.75;7.20;;;;;;;-145.68;48.42;72844.25;10402362;28;20712;-74
2023/09/26 11:42:00;;;;;;;10.60;7.63;;;;;;;-145.68;49.09;72794.28;10384990;28;20217;-74
2023/09/26 11:47:03;;;;;;;13.27;6.75;;;;;;;-145.68;47.69;72760.31;10388383;28;20674;-74
2023/09/26 11:52:04;;;;;;;10.25;7.03;;;;;;;-145.68;47.31;72716.34;10392880;28;20216;-75
2023/09/26 11:57:04;;;;;;;11.60;6.90;;;;;;;-145.68;45.65;72634.41;10409778;28;20244;-74
2023/09/26 12:02:05;;;;;;;9.73;6.70;;;;;;;-145.68;46.73;72720.34;10410144;28;20189;-74
2023/09/26 12:07:06;;;;;;;13.10;6.72;;;;;;;-145.68;45.26;72592.44;10406638;28;20648;-74
2023/09/26 12:12:07;;;;;;;12.25;6.00;;;;;;;-145.68;44.00;72394.63;10409079;28;20619;-74
2023/09/26 12:17:07;;;;;;;13.20;6.70;;;;;;;-145.68;43.50;72448.56;10390692;28;20247;-74
2023/09/26 12:22:08;;;;;;;12.18;6.22;;;;;;;-145.68;44.35;72628.41;10390868;28;20188;-74
2023/09/26 12:27:08;;;;;;;11.18;5.47;;;;;;;-145.68;43.41;72486.53;10390014;28;20637;-74
2023/09/26 12:32:08;;;;;;;10.77;5.57;;;;;;;-145.68;43.47;72454.56;10374734;28;20189;-74
2023/09/26 12:37:09;;;;;;;11.45;5.65;;;;;;;-145.68;43.51;72484.53;10389799;28;20247;-75
2023/09/26 12:42:09;;;;;;;9.85;5.80;;;;;;;-145.68;43.36;72440.56;10407621;28;20306;-74
2023/09/26 12:47:10;;;;;;;10.95;6.03;;;;;;;-145.68;43.03;72454.56;10389264;28;20228;-74
2023/09/26 12:52:10;;;;;;;7.57;4.57;;;;;;;-145.68;41.47;72424.59;10407560;28;20255;-74
2023/09/26 12:57:11;;;;;;;12.93;5.28;;;;;;;-145.68;41.89;72452.56;10387795;28;20226;-74
2023/09/26 13:02:11;;;;;;;10.70;4.93;;;;;;;-145.68;41.55;72372.63;10406988;28;20542;-74
2023/09/26 13:07:12;;;;;;;12.90;5.63;;;;;;;-145.68;41.84;72356.66;10388855;28;20195;-75
2023/09/26 13:12:13;;;;;;;13.18;5.72;;;;;;;-145.68;42.42;72432.59;10406371;28;20235;-75
2023/09/26 13:17:14;;;;;;;11.27;4.93;;;;;;;-145.68;43.83;72558.47;10406291;28;20209;-74
2023/09/26 13:22:15;;;;;;;11.27;5.50;;;;;;;-145.68;42.70;72428.59;10406306;28;20203;-74
2023/09/26 13:27:15;;;;;;;12.05;6.03;;;;;;;-145.68;43.23;72496.53;10405809;28;20196;-75
2023/09/26 13:32:16;;;;;;;10.60;5.80;;;;;;;-145.68;43.51;72456.56;10405866;28;20223;-74
2023/09/26 13:37:16;;;;;;;10.98;5.70;;;;;;;-145.68;43.66;72526.50;10404879;28;20213;-74
2023/09/26 13:42:17;;;;;;;11.02;6.13;;;;;;;-145.68;44.37;72588.44;10405918;28;20278;-74
2023/09/26 13:47:17;;;;;;;9.88;5.53;;;;;;;-145.68;45.10;72628.41;10386797;28;20236;-73
2023/09/26 13:52:18;;;;;;;14.30;6.47;;;;;;;-145.68;44.75;72624.41;10404727;28;20208;-74
2023/09/26 13:57:18;;;;;;;8.45;5.47;;;;;;;-145.68;46.34;72664.38;10404671;28;20259;-74
2023/09/26 14:02:19;;;;;;;9.38;5.82;;;;;;;-145.68;45.50;72630.41;10404598;28;20644;-74
2023/09/26 14:07:20;;;;;;;10.98;6.25;;;;;;;-145.68;46.73;72682.38;10404024;28;20227;-74
2023/09/26 14:12:20;;;;;;;13.65;6.47;;;;;;;-145.68;47.24;72722.34;10386552;28;20311;-74
2023/09/26 14:17:21;;;;;;;8.88;6.38;;;;;;;-145.68;47.27;72716.34;10386179;28;20220;-74
2023/09/26 14:22:21;;;;;;;14.10;6.90;;;;;;;-145.68;47.18;72708.34;10397696;28;20184;-74
2023/09/26 14:27:21;;;;;;;14.73;6.95;;;;;;;-145.68;47.22;72736.31;10404477;28;20185;-74
2023/09/26 14:32:22;;;;;;;13.38;7.13;;;;;;;-145.68;46.14;72666.38;10404396;28;20652;-74
2023/09/26 14:37:22;;;;;;;10.02;6.55;;;;;;;-145.68;47.09;72674.38;10403564;28;20270;-74
2023/09/26 14:42:23;;;;;;;11.98;7.45;;;;;;;-145.68;45.84;72506.50;10404433;28;20199;-74
2023/09/26 14:47:23;;;;;;;13.30;7.15;;;;;;;-145.68;46.15;72584.44;10403460;28;20285;-74
2023/09/26 14:52:24;;;;;;;14.52;7.28;;;;;;;-145.68;45.23;72486.53;10404027;28;20200;-74
2023/09/26 14:57:24;;;;;;;14.00;6.70;;;;;;;-145.68;43.67;72346.66;10403406;28;20216;-74
2023/09/26 15:02:25;;;;;;;13.82;7.03;;;;;;;-145.68;43.26;72356.66;10403755;28;20204;-74
2023/09/26 15:07:25;;;;;;;12.65;7.30;;;;;;;-145.68;43.69;72344.66;10385325;28;20744;-74
2023/09/26 15:12:26;;;;;;;10.85;7.10;;;;;;;-145.68;42.75;72232.75;10403771;28;20208;-74
2023/09/26 15:17:26;;;;;;;12.18;7.97;;;;;;;-145.68;45.11;72484.53;10403194;28;20212;-74
2023/09/26 15:22:27;;;;;;;13.68;8.00;;;;;;;-145.68;45.52;72482.53;10408188;28;20192;-74
2023/09/26 15:27:27;;;;;;;15.50;8.35;;;;;;;-145.68;45.34;72488.53;10411462;28;20203;-74
2023/09/26 15:32:27;;;;;;;16.52;8.23;;;;;;;-145.68;47.04;72580.47;10410930;28;20223;-74
2023/09/26 15:37:28;;;;;;;9.77;8.32;;;;;;;-145.68;50.06;72740.31;10393170;28;20222;-74
2023/09/26 15:42:28;;;;;;;16.40;8.15;;;;;;;-145.68;48.90;72662.38;10411067;28;20189;-74
2023/09/26 15:47:29;;;;;;;12.52;8.10;;;;;;;-145.68;51.30;72784.28;10409689;28;20677;-74
2023/09/26 15:52:29;;;;;;;13.75;8.75;;;;;;;-145.68;54.05;72924.19;10410779;28;20189;-74
2023/09/26 15:57:29;;;;;;;13.40;9.13;;;;;;;-145.68;56.48;73008.13;10409219;28;20212;-74
2023/09/26 16:02:30;;;;;;;13.63;8.10;;;;;;;-145.68;58.05;73060.09;10409941;28;20645;-74
2023/09/26 16:07:30;;;;;;;12.55;9.27;;;;;;;-145.68;59.92;73102.06;10409821;28;20192;-74
2023/09/26 16:12:31;;;;;;;15.18;9.25;;;;;;;-145.68;61.70;73122.03;10409823;28;20275;-74
2023/09/26 16:17:31;;;;;;;11.98;8.35;;;;;;;-145.68;61.01;73072.06;10409138;28;20222;-74
2023/09/26 16:22:32;;;;;;;8.90;7.82;;;;;;;-145.68;61.18;73080.06;10408997;28;20571;-74
2023/09/26 16:27:33;;;;;;;11.77;8.10;;;;;;;-145.68;61.35;73098.06;10408704;28;20181;-74
2023/09/26 16:32:33;;;;;;;11.95;7.88;;;;;;;-145.68;61.78;73112.03;10408311;28;20558;-74
2023/09/26 16:37:34;;;;;;;12.60;8.07;;;;;;;-145.68;63.56;73235.97;10408489;28;20270;-74
2023/09/26 16:42:34;;;;;;;15.23;8.40;;;;;;;-145.68;69.50;73299.91;10408616;28;20267;-74
2023/09/26 16:47:36;;;;;;;12.70;8.65;;;;;;;-145.68;69.86;73303.91;10407275;28;20289;-75
2023/09/26 16:52:37;;;;;;;14.13;8.68;;;;;;;-145.68;72.87;73361.88;10404635;28;20581;-74
2023/09/26 16:57:38;;;;;;;12.95;8.50;;;;;;;-145.68;77.34;73431.84;10407272;28;20223;-74
2023/09/26 17:02:39;;;;;;;13.80;9.02;;;;;;;-145.68;80.84;73485.81;10406978;28;20192;-75
2023/09/26 17:07:39;;;;;;;14.80;8.75;;;;;;;-145.68;85.59;73527.78;10406350;28;20195;-75
2023/09/26 17:12:39;;;;;;;15.68;10.63;;;;;;;-145.68;90.78;73581.75;10406567;28;20556;-74
2023/09/26 17:17:40;;;;;;;18.20;11.32;;;;;;;-145.68;100.00;73619.72;10405674;28;20270;-74
2023/09/26 17:22:41;;;;;;;17.90;13.57;;;;;;;-145.68;100.00;73629.72;10406478;28;20193;-75
2023/09/26 17:27:42;;;;;;;26.35;15.30;;;;;;;-145.68;100.00;73645.72;10405523;28;20231;-74
2023/09/26 17:32:43;;;;;;;32.42;18.60;;;;;;;-145.68;100.00;73693.69;10405549;28;20290;-74
2023/09/26 17:37:43;;;;;;;33.05;20.25;;;;;;;-145.68;100.00;73703.69;10405445;28;20306;-74
2023/09/26 17:42:44;;;;;;;31.13;18.65;;;;;;;-145.68;100.00;73705.69;10404678;28;20192;-74
2023/09/26 17:47:44;;;;;;;19.48;14.15;;;;;;;-145.68;100.00;73733.66;10404435;28;20228;-75
2023/09/26 17:52:44;;;;;;;20.55;13.85;;;;;;;-145.68;100.00;73743.66;10404904;28;20184;-74
2023/09/26 17:57:45;;;;;;;23.27;14.27;;;;;;;-145.68;100.00;73739.66;10404237;28;20230;-75
2023/09/26 18:02:45;;;;;;;23.48;14.65;;;;;;;-145.68;100.00;73743.66;10387181;28;20684;-74
2023/09/26 18:07:48;;;;;;;17.08;13.77;;;;;;;-145.68;100.00;73767.66;10404162;28;20242;-74
2023/09/26 18:12:48;;;;;;;25.77;13.90;;;;;;;-145.68;100.00;73771.63;10403922;28;20197;-74
2023/09/26 18:17:49;;;;;;;20.98;15.00;;;;;;;-145.68;100.00;73787.63;10403903;28;21209;-74
2023/09/26 18:22:49;;;;;;;22.13;14.27;;;;;;;-145.68;100.00;73791.63;10404547;28;20196;-74
2023/09/26 18:27:53;;;;;;;26.98;15.43;;;;;;;-145.68;100.00;73799.63;10385182;28;20200;-74
2023/09/26 18:32:53;;;;;;;20.45;14.77;;;;;;;-145.68;100.00;73811.63;10385860;28;20204;-74
2023/09/26 18:37:54;;;;;;;17.45;14.30;;;;;;;-145.68;100.00;73817.63;10385177;28;20267;-75
2023/09/26 18:42:54;;;;;;;20.10;14.02;;;;;;;-145.68;100.00;73823.63;10403303;28;20208;-74
2023/09/26 18:47:55;;;;;;;23.60;13.15;;;;;;;-145.68;100.00;73831.59;10402937;28;20235;-74
2023/09/26 18:52:55;;;;;;;20.50;13.55;;;;;;;-145.68;100.00;73843.59;10403095;28;20679;-74
2023/09/26 18:57:55;;;;;;;17.80;13.05;;;;;;;-145.68;100.00;73859.59;10401613;28;20291;-74
2023/09/26 19:02:58;;;;;;;20.33;13.93;;;;;;;-145.68;100.00;73883.59;10385031;28;20188;-74
2023/09/26 19:07:58;;;;;;;24.80;14.32;;;;;;;-145.68;100.00;73887.56;10402972;28;20659;-74
2023/09/26 19:12:59;;;;;;;18.15;13.82;;;;;;;-145.68;100.00;73915.56;10402275;28;20196;-74
2023/09/26 19:17:59;;;;;;;23.48;13.50;;;;;;;-145.68;100.00;73937.56;10402645;28;20260;-74
2023/09/26 19:23:00;;;;;;;23.45;14.52;;;;;;;-145.68;100.00;73943.56;10402757;28;20196;-74
2023/09/26 19:28:00;;;;;;;20.27;15.32;;;;;;;-145.68;100.00;73949.56;10402036;28;20248;-74
2023/09/26 19:33:00;;;;;;;18.30;14.13;;;;;;;-145.68;100.00;73959.53;10402754;28;20196;-74
2023/09/26 19:38:01;;;;;;;17.13;13.25;;;;;;;-145.68;100.00;73965.53;10384553;28;20240;-74
2023/09/26 19:43:02;;;;;;;21.80;15.57;;;;;;;-145.68;100.00;73971.53;10402123;28;20553;-74
2023/09/26 19:48:02;;;;;;;18.27;14.02;;;;;;;-145.68;100.00;73987.53;10401896;28;20233;-74
2023/09/26 19:53:02;;;;;;;20.92;14.23;;;;;;;-145.68;100.00;73993.53;10401515;28;20243;-74
2023/09/26 19:58:03;;;;;;;23.77;15.90;;;;;;;-145.68;100.00;73995.53;10401730;28;20216;-74
2023/09/26 20:03:03;;;;;;;21.80;13.88;;;;;;;-145.68;100.00;73997.53;10401623;28;20193;-74
2023/09/26 20:08:04;;;;;;;21.67;14.35;;;;;;;-145.68;100.00;73999.53;10405428;28;20188;-74
2023/09/26 20:13:04;;;;;;;21.98;15.30;;;;;;;-145.68;100.00;74007.53;10408792;28;20254;-74
2023/09/26 20:18:05;;;;;;;21.40;16.25;;;;;;;-145.68;100.00;74015.50;10407768;28;20212;-74
2023/09/26 20:23:07;;;;;;;20.33;14.23;;;;;;;-145.68;100.00;74019.50;10404591;28;20196;-74
2023/09/26 20:28:07;;;;;;;22.33;14.15;;;;;;;-145.68;100.00;74021.50;10408529;28;20193;-74
2023/09/26 20:33:08;;;;;;;18.50;13.73;;;;;;;-145.68;100.00;74023.50;10408274;28;20547;-75
2023/09/26 20:38:09;;;;;;;19.52;14.15;;;;;;;-145.68;100.00;74021.50;10408310;28;20263;-74
2023/09/26 20:43:09;;;;;;;17.95;14.82;;;;;;;-145.68;100.00;74031.50;10407857;28;20674;-74
2023/09/26 20:48:10;;;;;;;16.38;13.43;;;;;;;-145.68;100.00;74047.50;10407408;28;20233;-74
2023/09/26 20:53:11;;;;;;;19.45;13.50;;;;;;;-145.68;100.00;74059.50;10407137;28;20568;-74
2023/09/26 20:58:15;;;;;;;17.60;13.98;;;;;;;-145.68;100.00;74071.50;10408109;28;20216;-74
2023/09/26 21:03:17;;;;;;;21.67;13.60;;;;;;;-145.68;100.00;74069.50;10407737;28;20196;-74
2023/09/26 21:08:18;;;;;;;21.85;13.57;;;;;;;-145.68;100.00;74075.50;10407313;28;20307;-74
2023/09/26 21:13:18;;;;;;;19.17;13.57;;;;;;;-145.68;100.00;74087.47;10407583;28;20203;-74
2023/09/26 21:18:19;;;;;;;20.15;13.35;;;;;;;-145.68;100.00;74093.47;10405874;28;20247;-74
2023/09/26 21:23:19;;;;;;;19.42;14.93;;;;;;;-145.68;100.00;74089.47;10388667;28;20720;-74
2023/09/26 21:28:20;;;;;;;19.17;14.52;;;;;;;-145.68;100.00;74107.47;10406782;28;20192;-74
2023/09/26 21:33:20;;;;;;;18.05;13.85;;;;;;;-145.68;100.00;74113.47;10406910;28;20557;-74
2023/09/26 21:38:21;;;;;;;20.20;15.55;;;;;;;-145.68;100.00;74125.47;10406058;28;20220;-74
2023/09/26 21:43:22;;;;;;;21.67;15.93;;;;;;;-145.68;100.00;74137.47;10406157;28;20181;-74
2023/09/26 21:48:22;;;;;;;19.48;14.75;;;;;;;-145.68;100.00;74139.47;10405817;28;20291;-74
2023/09/26 21:53:23;;;;;;;19.80;15.18;;;;;;;-145.68;100.00;74135.47;10405504;28;20184;-74
2023/09/26 21:58:23;;;;;;;18.40;15.30;;;;;;;-145.68;100.00;74141.47;10405652;28;20216;-74
2023/09/26 22:03:23;;;;;;;22.80;14.32;;;;;;;-145.68;100.00;74139.47;10405333;28;20684;-74
2023/09/26 22:08:24;;;;;;;19.48;14.80;;;;;;;-145.68;100.00;74135.47;10405094;28;20283;-74
2023/09/26 22:13:26;;;;;;;21.05;13.68;;;;;;;-145.68;100.00;74145.47;10405146;28;20209;-74
2023/09/26 22:18:26;;;;;;;22.83;15.02;;;;;;;-145.68;100.00;74135.47;10404998;28;20311;-74